Flight Track Log - Related Links

Times and Time Zones

All times are in EDT time to prevent confusion due to time zone crossing. See the N960DL flight status page for this flight to view local times or setup timezone preferences in your user account.

Time Position Orientation Groundspeed Altitude Reporting Facility
EDT Latitude Longitude Course Direction KTS MPH feet Rate Location/Type
Fri 08:09:54 AM 28.4000 -81.3000 North 147 169 1,100  Level Orlando TRACON
Fri 08:10:48 AM 28.3667 -81.3167 204° Southwest 237 273 2,200 2,250 Climbing Orlando TRACON
Fri 08:11:54 AM 28.3500 -81.4167 259° West 272 313 5,600 2,656 Climbing Orlando TRACON
Fri 08:13:00 AM 28.8892 -81.3612 350° North  Level FlightAware Approximate
Fri 08:13:51 AM 28.4056 -81.5214 301° West 259 298 10,300  Level Jacksonville Center
Fri 08:14:00 AM 29.0094 -81.3686 350° North  Level FlightAware Approximate
Fri 08:14:51 AM 28.5100 -81.5367 353° North 302 348 12,000  Level Jacksonville Center
Fri 08:15:00 AM 29.1291 -81.3833 North  Level FlightAware Approximate
Fri 08:15:51 AM 28.6189 -81.5586 350° North 344 396 14,600  Level Jacksonville Center
Fri 08:16:51 AM 28.7317 -81.5808 350° North 384 442 17,400 2,300 Climbing Jacksonville Center
Fri 08:17:51 AM 28.8467 -81.6031 350° North 407 468 19,200 1,850 Climbing Jacksonville Center
Fri 08:18:51 AM 28.9681 -81.6275 350° North 428 493 21,100 1,900 Climbing Jacksonville Center
Fri 08:19:51 AM 29.0914 -81.6450 353° North 440 506 23,000 2,200 Climbing Jacksonville Center
Fri 08:20:51 AM 29.2147 -81.6625 353° North 446 513 25,500 2,250 Climbing Jacksonville Center
Fri 08:21:51 AM 29.3233 -81.6756 354° North 446 513 27,500 1,750 Climbing Jacksonville Center
Fri 08:22:51 AM 29.4403 -81.6858 356° North 435 501 29,000 750 Climbing Jacksonville Center
Fri 08:23:51 AM 29.5636 -81.7011 354° North 435 501 29,000  Level Jacksonville Center
Fri 08:24:51 AM 29.6847 -81.7139 355° North 435 501 29,000  Level Jacksonville Center
Fri 08:25:51 AM 29.8081 -81.7269 355° North 435 501 29,000  Level Jacksonville Center
Fri 08:26:51 AM 29.9272 -81.7397 355° North 435 501 29,000  Level Jacksonville Center
Fri 08:27:51 AM 30.0464 -81.7503 356° North 440 506 29,000  Level Jacksonville Center
Fri 08:28:50 AM 30.1675 -81.7633 355° North 440 506 29,000  Level Jacksonville Center
Fri 08:29:51 AM 30.2889 -81.7789 354° North 440 506 29,000  Level Jacksonville Center
Fri 08:30:51 AM 30.4100 -81.7894 356° North 435 501 29,000  Level Jacksonville Center
Fri 08:31:51 AM 30.5333 -81.8025 355° North 435 501 29,000  Level Jacksonville Center
Fri 08:32:51 AM 30.6692 -81.8228 353° North 440 506 29,000  Level Jacksonville Center
Fri 08:33:51 AM 30.7903 -81.8381 354° North 440 506 29,000  Level Jacksonville Center
Fri 08:34:51 AM 30.9117 -81.8514 355° North 440 506 29,000  Level Jacksonville Center
Fri 08:35:51 AM 31.0350 -81.8644 355° North 446 513 29,000  Level Jacksonville Center
Fri 08:36:51 AM 31.1581 -81.8778 355° North 441 507 29,000  Level Jacksonville Center
Fri 08:37:51 AM 31.2814 -81.8936 354° North 443 510 29,000  Level Jacksonville Center
Fri 08:38:51 AM 31.3922 -81.9019 356° North 437 503 29,000  Level Jacksonville Center
Fri 08:39:51 AM 31.5261 -81.9178 354° North 442 509 29,000  Level Jacksonville Center
Fri 08:40:51 AM 31.6472 -81.9311 355° North 442 509 29,000  Level Jacksonville Center
Fri 08:41:51 AM 31.7600 -81.9444 354° North 437 503 29,000  Level Jacksonville Center
Fri 08:42:51 AM 31.8958 -81.9578 355° North 443 510 29,000  Level Jacksonville Center
Fri 08:43:51 AM 32.0169 -81.9761 353° North 448 516 29,000  Level Jacksonville Center
Fri 08:46:10 AM 32.2953 -82.0019 356° North 442 509 29,000  Level Atlanta Center
Fri 08:47:10 AM 32.4189 -82.0211 353° North 442 509 29,000  Level Atlanta Center
Fri 08:48:10 AM 32.5422 -82.0356 354° North 447 514 29,000  Level Atlanta Center
Fri 08:49:10 AM 32.6697 -82.0475 355° North 447 514 29,000  Level Atlanta Center
Fri 08:50:10 AM 32.7931 -82.0594 355° North 447 514 29,000 50 Level Atlanta Center
Fri 08:51:10 AM 32.9186 -82.0739 354° North 447 514 29,100 500 Climbing Atlanta Center
Fri 08:52:10 AM 33.0419 -82.0861 355° North 447 514 30,000 650 Climbing Atlanta Center
Fri 08:53:10 AM 33.1611 -82.1083 351° North 442 509 30,400 1,100 Climbing Atlanta Center
Fri 08:54:10 AM 33.2667 -82.1706 334° Northwest 422 486 32,200 1,550 Climbing Atlanta Center
Fri 08:55:10 AM 33.3678 -82.2331 333° Northwest 417 480 33,500 900 Climbing Atlanta Center
Fri 08:56:10 AM 33.4731 -82.3006 332° Northwest 412 474 34,000 250 Climbing Atlanta Center
Fri 08:57:10 AM 33.5761 -82.3608 334° Northwest 418 481 34,000  Level Atlanta Center
Fri 08:58:10 AM 33.6731 -82.4239 332° Northwest 405 466 34,000  Level Atlanta Center
Fri 08:59:10 AM 33.7761 -82.4894 332° Northwest 405 466 34,000  Level Atlanta Center
Fri 09:00:10 AM 33.8750 -82.5500 333° Northwest 398 458 34,000  Level Atlanta Center
Fri 09:01:10 AM 33.9739 -82.6161 331° Northwest 405 466 34,000  Level Atlanta Center
Fri 09:02:10 AM 34.0747 -82.6819 332° Northwest 399 459 34,000  Level Atlanta Center
Fri 09:03:10 AM 34.1797 -82.7481 332° Northwest 405 466 34,000  Level Atlanta Center
Fri 09:04:10 AM 34.2869 -82.8169 332° Northwest 405 466 34,000  Level Atlanta Center
Fri 09:05:10 AM 34.3919 -82.8858 332° Northwest 405 466 34,000  Level Atlanta Center
Fri 09:06:10 AM 34.4906 -82.9475 333° Northwest 400 460 34,000  Level Atlanta Center
Fri 09:07:10 AM 34.5892 -83.0119 332° Northwest 405 466 34,000  Level Atlanta Center
Fri 09:08:10 AM 34.6900 -83.0814 330° Northwest 400 460 34,000  Level Atlanta Center
Fri 09:09:10 AM 34.7864 -83.1458 331° Northwest 400 460 34,000  Level Atlanta Center
Fri 09:10:10 AM 34.8872 -83.2108 332° Northwest 405 466 34,000  Level Atlanta Center
Fri 09:11:10 AM 34.9731 -83.2708 330° Northwest 400 460 34,000  Level Atlanta Center
Fri 09:12:10 AM 35.0778 -83.3383 332° Northwest 400 460 34,000  Level Atlanta Center
Fri 09:13:10 AM 35.1742 -83.4061 330° Northwest 400 460 34,000  Level Atlanta Center
Fri 09:14:10 AM 35.2850 -83.4764 333° Northwest 400 460 34,000  Level Atlanta Center
Fri 09:15:10 AM 35.3856 -83.5444 331° Northwest 400 460 34,000  Level Atlanta Center
Fri 09:16:10 AM 35.4858 -83.6128 331° Northwest 400 460 34,000  Level Atlanta Center
Fri 09:17:10 AM 35.5864 -83.6811 331° Northwest 400 460 34,000  Level Atlanta Center
Fri 09:18:10 AM 35.6867 -83.7497 331° Northwest 400 460 34,000  Level Atlanta Center
Fri 09:19:10 AM 35.7869 -83.8161 332° Northwest 400 460 34,000  Level Atlanta Center
Fri 09:20:10 AM 35.8850 -83.8797 332° Northwest 400 460 34,000  Level Atlanta Center
Fri 09:21:10 AM 36.0061 -83.8797 360° North 400 460 34,000  Level Atlanta Center
Fri 09:22:56 AM 36.2047 -83.8431 North 449 517 34,000  Level Indianapolis Center
Fri 09:23:58 AM 36.3508 -83.8161 North 445 512 34,000  Level Indianapolis Center
Fri 09:25:00 AM 36.4728 -83.7953 North 445 512 34,000  Level Indianapolis Center
Fri 09:26:02 AM 36.5914 -83.7747 North 445 512 34,000  Level Indianapolis Center
Fri 09:27:04 AM 36.7158 -83.7536 North 447 514 34,000 -968 Level Indianapolis Center
Fri 09:28:06 AM 36.8631 -83.7281 North 452 520 32,000 -1,512 Descending Indianapolis Center
Fri 09:29:07 AM 36.9906 -83.7050 North 456 525 30,900 -1,512 Descending Indianapolis Center
Fri 09:30:09 AM 37.1211 -83.6819 North 466 536 28,900 -2,323 Descending Indianapolis Center
Fri 09:31:11 AM 37.2561 -83.6561 North 482 555 26,100 -2,226 Descending Indianapolis Center
Fri 09:32:13 AM 37.3878 -83.6331 North 478 550 24,300 -1,113 Descending Indianapolis Center
Fri 09:33:15 AM 37.5175 -83.6097 North 468 539 23,800 -774 Descending Indianapolis Center
Fri 09:34:17 AM 37.6464 -83.5981 North 462 532 22,700 -1,065 Descending Indianapolis Center
Fri 09:35:19 AM 37.7728 -83.6756 334° Northwest 434 499 21,600 -968 Descending Indianapolis Center
Fri 09:36:21 AM 37.8775 -83.7478 331° Northwest 430 495 20,700 -1,210 Descending Indianapolis Center
Fri 09:37:23 AM 37.9794 -83.8206 331° Northwest 420 483 19,100 -1,500 Descending Indianapolis Center
Fri 09:38:25 AM 38.0789 -83.8894 331° Northwest 409 471 17,600 -1,403 Descending Indianapolis Center
Fri 09:39:27 AM 38.1758 -83.9597 330° Northwest 402 463 16,200 -1,548 Descending Indianapolis Center
Fri 09:40:29 AM 38.2717 -84.0297 330° Northwest 396 456 14,400 -1,790 Descending Indianapolis Center
Fri 09:41:31 AM 38.3808 -84.1119 329° Northwest 390 449 12,500 -1,659 Descending Indianapolis Center
Fri 09:42:32 AM 38.4711 -84.1781 330° Northwest 378 435 11,000 -732 Descending Indianapolis Center
Fri 09:43:34 AM 38.5600 -84.2506 327° Northwest 378 435 11,000  Level Indianapolis Center
Fri 09:44:36 AM 38.6508 -84.3150 331° Northwest 365 420 11,000  Level Indianapolis Center
Fri 09:45:38 AM 38.7397 -84.3772 331° Northwest 360 414 11,000 -145 Level Indianapolis Center
Fri 09:46:40 AM 38.8275 -84.4425 330° Northwest 359 413 10,700 -484 Descending Indianapolis Center
Fri 09:47:42 AM 38.9167 -84.5000 333° Northwest 293 337 10,000 -983 Descending Cincinnati TRACON
Fri 09:48:36 AM 38.9833 -84.5500 330° Northwest 285 328 8,800 -1,526 Descending Cincinnati TRACON
Fri 09:49:36 AM 39.0667 -84.5500 360° North 298 343 7,100 -1,700 Descending Cincinnati TRACON

Login

Don't have an account? Register now (free) for customized features, flight alerts, and more!